ARG1400 SABE-SAME
Flight info
| Callsign | ARG1400 |
|---|---|
| Flight time | 1h 29m |
| Altitude | 36000 |
| Route | PAL9 NEPIS DCT NIN UL405 PAPIR PAPIR3Q |
| Aircraft | B738/M-MSDFGHILRVWS/LB1 |
Departure
| Time | 2026-04-16 22:20 |
|---|---|
| Airport | Aeroparque Jorge Newbery (SABE) |
Arrival
| Time | 2026-04-16 23:49 |
|---|---|
| Airport | Governor Francisco Gabrielli International Airport (SAME) |
| Time | Latitude | Longitude | Altitude | Speed | Heading |
|---|---|---|---|---|---|
| 2026-04-16 21:15 | -34.55966 | -58.41013 | 25 ft | 0 kts | 58° |
| 2026-04-16 22:06 | -34.55973 | -58.41026 | 24 ft | 4 kts | 55° |
| 2026-04-16 22:06 | -34.55990 | -58.41051 | 24 ft | 4 kts | 31° |
| 2026-04-16 22:07 | -34.56009 | -58.41056 | 30 ft | 3 kts | 319° |
| 2026-04-16 22:07 | -34.56026 | -58.41037 | 30 ft | 4 kts | 312° |
| 2026-04-16 22:07 | -34.56043 | -58.41012 | 28 ft | 3 kts | 308° |
| 2026-04-16 22:07 | -34.56045 | -58.41009 | 24 ft | 0 kts | 308° |
| 2026-04-16 22:13 | -34.56041 | -58.41015 | 24 ft | 2 kts | 307° |
| 2026-04-16 22:13 | -34.56037 | -58.41046 | 27 ft | 5 kts | 256° |
| 2026-04-16 22:13 | -34.56045 | -58.41102 | 24 ft | 8 kts | 286° |
| 2026-04-16 22:13 | -34.56007 | -58.41170 | 29 ft | 11 kts | 306° |
| 2026-04-16 22:14 | -34.55961 | -58.41243 | 24 ft | 11 kts | 307° |
| 2026-04-16 22:14 | -34.55919 | -58.41317 | 28 ft | 10 kts | 300° |
| 2026-04-16 22:14 | -34.55886 | -58.41395 | 27 ft | 10 kts | 296° |
| 2026-04-16 22:14 | -34.55854 | -58.41470 | 24 ft | 10 kts | 297° |
| 2026-04-16 22:15 | -34.55824 | -58.41543 | 26 ft | 10 kts | 297° |
| 2026-04-16 22:15 | -34.55793 | -58.41615 | 26 ft | 9 kts | 297° |
| 2026-04-16 22:15 | -34.55761 | -58.41693 | 26 ft | 11 kts | 296° |
| 2026-04-16 22:15 | -34.55724 | -58.41778 | 25 ft | 11 kts | 304° |
| 2026-04-16 22:16 | -34.55681 | -58.41855 | 26 ft | 11 kts | 303° |
| 2026-04-16 22:16 | -34.55640 | -58.41930 | 26 ft | 11 kts | 304° |
| 2026-04-16 22:16 | -34.55599 | -58.42003 | 25 ft | 10 kts | 304° |
| 2026-04-16 22:16 | -34.55559 | -58.42072 | 26 ft | 10 kts | 307° |
| 2026-04-16 22:17 | -34.55517 | -58.42138 | 27 ft | 10 kts | 307° |
| 2026-04-16 22:17 | -34.55478 | -58.42203 | 24 ft | 9 kts | 307° |
| 2026-04-16 22:17 | -34.55436 | -58.42270 | 27 ft | 11 kts | 307° |
| 2026-04-16 22:17 | -34.55391 | -58.42342 | 25 ft | 10 kts | 307° |
| 2026-04-16 22:18 | -34.55364 | -58.42420 | 24 ft | 10 kts | 279° |
| 2026-04-16 22:18 | -34.55371 | -58.42490 | 24 ft | 7 kts | 223° |
| 2026-04-16 22:18 | -34.55406 | -58.42510 | 25 ft | 4 kts | 158° |
| 2026-04-16 22:18 | -34.55416 | -58.42490 | 25 ft | 0 kts | 123° |
| 2026-04-16 22:19 | -34.55417 | -58.42490 | 25 ft | 0 kts | 123° |
| 2026-04-16 22:19 | -34.55459 | -58.42413 | 26 ft | 40 kts | 124° |
| 2026-04-16 22:19 | -34.55765 | -58.41865 | 24 ft | 115 kts | 124° |
| 2026-04-16 22:19 | -34.56336 | -58.40875 | 177 ft | 160 kts | 128° |
| 2026-04-16 22:20 | -34.56955 | -58.39754 | 1029 ft | 158 kts | 126° |
| 2026-04-16 22:20 | -34.57418 | -58.38472 | 1629 ft | 182 kts | 102° |
| 2026-04-16 22:20 | -34.57276 | -58.36821 | 2042 ft | 216 kts | 74° |
| 2026-04-16 22:20 | -34.56474 | -58.35168 | 2482 ft | 238 kts | 59° |
| 2026-04-16 22:21 | -34.55483 | -58.33448 | 2896 ft | 257 kts | 58° |
| 2026-04-16 22:21 | -34.54434 | -58.31581 | 3267 ft | 279 kts | 60° |
| 2026-04-16 22:21 | -34.53334 | -58.29670 | 4316 ft | 280 kts | 52° |
| 2026-04-16 22:21 | -34.51697 | -58.28396 | 5221 ft | 279 kts | 12° |
| 2026-04-16 22:22 | -34.49749 | -58.28389 | 5974 ft | 287 kts | 340° |
| 2026-04-16 22:22 | -34.48064 | -58.29620 | 6603 ft | 285 kts | 307° |
| 2026-04-16 22:22 | -34.47188 | -58.31705 | 7289 ft | 278 kts | 274° |
| 2026-04-16 22:22 | -34.47376 | -58.33955 | 8155 ft | 266 kts | 243° |
| 2026-04-16 22:23 | -34.48362 | -58.35867 | 8873 ft | 271 kts | 232° |
| 2026-04-16 22:23 | -34.49427 | -58.37745 | 9724 ft | 271 kts | 233° |
| 2026-04-16 22:23 | -34.50511 | -58.39645 | 10411 ft | 279 kts | 234° |
| 2026-04-16 22:23 | -34.51612 | -58.41696 | 10642 ft | 303 kts | 236° |
| 2026-04-16 22:24 | -34.52760 | -58.43925 | 11091 ft | 315 kts | 236° |
| 2026-04-16 22:24 | -34.53930 | -58.46156 | 12005 ft | 313 kts | 236° |
| 2026-04-16 22:24 | -34.55086 | -58.48428 | 12584 ft | 323 kts | 237° |
| 2026-04-16 22:24 | -34.56280 | -58.50827 | 12849 ft | 341 kts | 237° |
| 2026-04-16 22:25 | -34.57519 | -58.53329 | 13391 ft | 348 kts | 238° |
| 2026-04-16 22:25 | -34.58773 | -58.55864 | 13967 ft | 354 kts | 238° |
| 2026-04-16 22:25 | -34.60016 | -58.58476 | 14481 ft | 360 kts | 240° |
| 2026-04-16 22:25 | -34.61041 | -58.61272 | 15076 ft | 366 kts | 254° |
| 2026-04-16 22:26 | -34.61272 | -58.64356 | 15790 ft | 368 kts | 270° |
| 2026-04-16 22:26 | -34.61127 | -58.67421 | 16430 ft | 372 kts | 272° |
| 2026-04-16 22:26 | -34.60948 | -58.70598 | 16886 ft | 380 kts | 272° |
| 2026-04-16 22:26 | -34.60774 | -58.73812 | 17465 ft | 383 kts | 272° |
| 2026-04-16 22:27 | -34.60614 | -58.77053 | 18105 ft | 385 kts | 272° |
| 2026-04-16 22:27 | -34.60467 | -58.80306 | 18607 ft | 388 kts | 271° |
| 2026-04-16 22:27 | -34.60328 | -58.83586 | 19120 ft | 390 kts | 271° |
| 2026-04-16 22:27 | -34.60194 | -58.86882 | 19611 ft | 393 kts | 271° |
| 2026-04-16 22:28 | -34.60062 | -58.90208 | 20119 ft | 396 kts | 271° |
| 2026-04-16 22:28 | -34.59928 | -58.93553 | 20635 ft | 398 kts | 271° |
| 2026-04-16 22:28 | -34.59793 | -58.96922 | 21143 ft | 401 kts | 271° |
| 2026-04-16 22:28 | -34.59657 | -59.00315 | 21615 ft | 403 kts | 271° |
| 2026-04-16 22:29 | -34.59519 | -59.03727 | 22061 ft | 407 kts | 271° |
| 2026-04-16 22:29 | -34.59379 | -59.07161 | 22520 ft | 409 kts | 271° |
| 2026-04-16 22:29 | -34.59239 | -59.10582 | 22985 ft | 411 kts | 271° |
| 2026-04-16 22:29 | -34.59095 | -59.14061 | 23422 ft | 414 kts | 271° |
| 2026-04-16 22:30 | -34.58950 | -59.17563 | 23795 ft | 417 kts | 271° |
| 2026-04-16 22:30 | -34.58802 | -59.21078 | 24169 ft | 419 kts | 271° |
| 2026-04-16 22:30 | -34.58652 | -59.24624 | 24535 ft | 421 kts | 271° |
| 2026-04-16 22:30 | -34.58501 | -59.28186 | 24900 ft | 424 kts | 271° |
| 2026-04-16 22:31 | -34.58349 | -59.31773 | 25265 ft | 426 kts | 271° |
| 2026-04-16 22:31 | -34.58193 | -59.35388 | 25614 ft | 428 kts | 271° |
| 2026-04-16 22:31 | -34.58035 | -59.39013 | 25958 ft | 431 kts | 271° |
| 2026-04-16 22:31 | -34.57878 | -59.42602 | 26290 ft | 433 kts | 271° |
| 2026-04-16 22:32 | -34.57717 | -59.46264 | 26627 ft | 435 kts | 271° |
| 2026-04-16 22:32 | -34.57556 | -59.49934 | 26955 ft | 437 kts | 271° |
| 2026-04-16 22:32 | -34.57391 | -59.53641 | 27294 ft | 438 kts | 271° |
| 2026-04-16 22:32 | -34.57225 | -59.57342 | 27616 ft | 440 kts | 271° |
| 2026-04-16 22:33 | -34.57060 | -59.61062 | 27921 ft | 443 kts | 271° |
| 2026-04-16 22:33 | -34.56952 | -59.64799 | 28221 ft | 444 kts | 270° |
| 2026-04-16 22:33 | -34.56888 | -59.68509 | 28509 ft | 446 kts | 269° |
| 2026-04-16 22:33 | -34.56839 | -59.72285 | 28816 ft | 448 kts | 269° |
| 2026-04-16 22:34 | -34.56789 | -59.76083 | 29103 ft | 450 kts | 269° |
| 2026-04-16 22:34 | -34.56733 | -59.79881 | 29443 ft | 450 kts | 269° |
| 2026-04-16 22:34 | -34.56670 | -59.83673 | 29889 ft | 448 kts | 270° |
| 2026-04-16 22:34 | -34.56601 | -59.87440 | 30288 ft | 446 kts | 270° |
| 2026-04-16 22:35 | -34.56529 | -59.91205 | 30632 ft | 445 kts | 269° |
| 2026-04-16 22:35 | -34.56455 | -59.94969 | 30956 ft | 445 kts | 269° |
| 2026-04-16 22:35 | -34.56380 | -59.98675 | 31274 ft | 444 kts | 269° |
| 2026-04-16 22:35 | -34.56304 | -60.02422 | 31605 ft | 444 kts | 269° |
| 2026-04-16 22:36 | -34.56226 | -60.06164 | 31930 ft | 443 kts | 269° |
| 2026-04-16 22:36 | -34.56148 | -60.09897 | 32242 ft | 442 kts | 269° |
| 2026-04-16 22:36 | -34.56069 | -60.13628 | 32547 ft | 442 kts | 269° |
| 2026-04-16 22:36 | -34.55988 | -60.17361 | 32864 ft | 441 kts | 270° |
| 2026-04-16 22:37 | -34.55906 | -60.21081 | 33215 ft | 440 kts | 269° |
| 2026-04-16 22:37 | -34.55823 | -60.24772 | 33556 ft | 438 kts | 269° |
| 2026-04-16 22:37 | -34.55740 | -60.28466 | 33820 ft | 438 kts | 269° |
| 2026-04-16 22:37 | -34.55656 | -60.32115 | 34062 ft | 438 kts | 269° |
| 2026-04-16 22:38 | -34.55569 | -60.35848 | 34294 ft | 437 kts | 269° |
| 2026-04-16 22:38 | -34.55484 | -60.39495 | 34506 ft | 438 kts | 269° |
| 2026-04-16 22:38 | -34.55399 | -60.43182 | 34741 ft | 437 kts | 269° |
| 2026-04-16 22:38 | -34.55311 | -60.46874 | 34981 ft | 437 kts | 269° |
| 2026-04-16 22:39 | -34.55222 | -60.50538 | 35283 ft | 434 kts | 269° |
| 2026-04-16 22:39 | -34.55131 | -60.54197 | 35545 ft | 433 kts | 270° |
| 2026-04-16 22:39 | -34.55040 | -60.57855 | 35721 ft | 434 kts | 270° |
| 2026-04-16 22:39 | -34.54948 | -60.61519 | 35818 ft | 435 kts | 270° |
| 2026-04-16 22:40 | -34.54760 | -60.68837 | 35833 ft | 433 kts | 270° |
| 2026-04-16 22:40 | -34.54570 | -60.76103 | 35840 ft | 434 kts | 270° |
| 2026-04-16 22:41 | -34.54374 | -60.83442 | 35845 ft | 434 kts | 270° |
| 2026-04-16 22:41 | -34.54173 | -60.90766 | 35838 ft | 434 kts | 270° |
| 2026-04-16 22:42 | -34.53521 | -60.98069 | 35852 ft | 436 kts | 278° |
| 2026-04-16 22:42 | -34.52343 | -61.05291 | 35839 ft | 436 kts | 278° |
| 2026-04-16 22:43 | -34.51173 | -61.12453 | 35850 ft | 436 kts | 278° |
| 2026-04-16 22:43 | -34.50035 | -61.19678 | 35847 ft | 435 kts | 278° |
| 2026-04-16 22:44 | -34.48912 | -61.26881 | 35849 ft | 434 kts | 278° |
| 2026-04-16 22:44 | -34.47791 | -61.34067 | 35840 ft | 433 kts | 278° |
| 2026-04-16 22:45 | -34.46852 | -61.40037 | 35847 ft | 433 kts | 278° |
| 2026-04-16 22:45 | -34.45539 | -61.48368 | 35858 ft | 433 kts | 278° |
| 2026-04-16 22:46 | -34.44402 | -61.55540 | 35857 ft | 433 kts | 278° |
| 2026-04-16 22:46 | -34.43444 | -61.61503 | 35860 ft | 433 kts | 278° |
| 2026-04-16 22:47 | -34.42283 | -61.68686 | 35857 ft | 434 kts | 278° |
| 2026-04-16 22:47 | -34.41120 | -61.75857 | 35861 ft | 434 kts | 278° |
| 2026-04-16 22:48 | -34.39961 | -61.82982 | 35863 ft | 433 kts | 278° |
| 2026-04-16 22:48 | -34.38793 | -61.90144 | 35855 ft | 434 kts | 278° |
| 2026-04-16 22:49 | -34.37621 | -61.97297 | 35857 ft | 433 kts | 278° |
| 2026-04-16 22:49 | -34.36448 | -62.04443 | 35861 ft | 432 kts | 278° |
| 2026-04-16 22:50 | -34.35268 | -62.11592 | 35861 ft | 432 kts | 278° |
| 2026-04-16 22:50 | -34.34098 | -62.18678 | 35865 ft | 431 kts | 278° |
| 2026-04-16 22:51 | -34.32912 | -62.25836 | 35863 ft | 431 kts | 278° |
| 2026-04-16 22:51 | -34.31739 | -62.32894 | 35868 ft | 430 kts | 277° |
| 2026-04-16 22:52 | -34.30558 | -62.39981 | 35866 ft | 429 kts | 278° |
| 2026-04-16 22:52 | -34.29376 | -62.47051 | 35871 ft | 428 kts | 278° |
| 2026-04-16 22:53 | -34.28190 | -62.54121 | 35872 ft | 428 kts | 278° |
| 2026-04-16 22:53 | -34.27007 | -62.61129 | 35870 ft | 427 kts | 278° |
| 2026-04-16 22:54 | -34.25816 | -62.68163 | 35859 ft | 426 kts | 278° |
| 2026-04-16 22:54 | -34.24628 | -62.75174 | 35867 ft | 425 kts | 277° |
| 2026-04-16 22:55 | -34.23435 | -62.82166 | 35871 ft | 424 kts | 278° |
| 2026-04-16 22:55 | -34.22242 | -62.89141 | 35874 ft | 423 kts | 278° |
| 2026-04-16 22:56 | -34.21053 | -62.96059 | 35870 ft | 423 kts | 278° |
| 2026-04-16 22:56 | -34.19857 | -63.03007 | 35868 ft | 422 kts | 278° |
| 2026-04-16 22:57 | -34.18653 | -63.09971 | 35870 ft | 422 kts | 278° |
| 2026-04-16 22:57 | -34.17447 | -63.16921 | 35876 ft | 422 kts | 278° |
| 2026-04-16 22:58 | -34.16240 | -63.23855 | 35867 ft | 421 kts | 278° |
| 2026-04-16 22:58 | -34.15033 | -63.30775 | 35862 ft | 420 kts | 278° |
| 2026-04-16 22:59 | -34.13823 | -63.37625 | 35864 ft | 420 kts | 279° |
| 2026-04-16 22:59 | -34.12484 | -63.44491 | 35864 ft | 420 kts | 280° |
| 2026-04-16 23:00 | -34.11113 | -63.51339 | 35866 ft | 419 kts | 280° |
| 2026-04-16 23:00 | -34.09754 | -63.58172 | 35872 ft | 419 kts | 279° |
| 2026-04-16 23:01 | -34.08396 | -63.65025 | 35867 ft | 419 kts | 280° |
| 2026-04-16 23:01 | -34.07042 | -63.71853 | 35863 ft | 418 kts | 280° |
| 2026-04-16 23:02 | -34.05693 | -63.78626 | 35869 ft | 417 kts | 280° |
| 2026-04-16 23:02 | -34.04333 | -63.85430 | 35857 ft | 416 kts | 280° |
| 2026-04-16 23:03 | -34.02979 | -63.92213 | 35862 ft | 416 kts | 280° |
| 2026-04-16 23:03 | -34.01631 | -63.98964 | 35871 ft | 416 kts | 280° |
| 2026-04-16 23:04 | -34.00276 | -64.05743 | 35867 ft | 416 kts | 280° |
| 2026-04-16 23:04 | -33.98916 | -64.12526 | 35874 ft | 416 kts | 280° |
| 2026-04-16 23:05 | -33.97550 | -64.19316 | 35866 ft | 416 kts | 280° |
| 2026-04-16 23:05 | -33.96180 | -64.26096 | 35872 ft | 416 kts | 280° |
| 2026-04-16 23:06 | -33.94816 | -64.32837 | 35866 ft | 417 kts | 280° |
| 2026-04-16 23:06 | -33.93436 | -64.39621 | 35859 ft | 416 kts | 280° |
| 2026-04-16 23:07 | -33.92060 | -64.46386 | 35863 ft | 415 kts | 280° |
| 2026-04-16 23:07 | -33.90679 | -64.53128 | 35868 ft | 414 kts | 281° |
| 2026-04-16 23:08 | -33.89289 | -64.59842 | 35861 ft | 413 kts | 281° |
| 2026-04-16 23:08 | -33.87900 | -64.66540 | 35869 ft | 412 kts | 281° |
| 2026-04-16 23:09 | -33.86514 | -64.73214 | 35871 ft | 410 kts | 281° |
| 2026-04-16 23:09 | -33.85133 | -64.79839 | 35871 ft | 410 kts | 281° |
| 2026-04-16 23:10 | -33.83748 | -64.86489 | 35871 ft | 409 kts | 281° |
| 2026-04-16 23:10 | -33.82366 | -64.93125 | 35867 ft | 409 kts | 281° |
| 2026-04-16 23:11 | -33.80979 | -64.99771 | 35877 ft | 410 kts | 281° |
| 2026-04-16 23:11 | -33.79594 | -65.06380 | 35875 ft | 410 kts | 281° |
| 2026-04-16 23:12 | -33.78196 | -65.13046 | 35865 ft | 411 kts | 281° |
| 2026-04-16 23:12 | -33.76793 | -65.19709 | 35863 ft | 411 kts | 281° |
| 2026-04-16 23:13 | -33.75387 | -65.26364 | 35871 ft | 411 kts | 281° |
| 2026-04-16 23:13 | -33.73982 | -65.33007 | 35882 ft | 410 kts | 281° |
| 2026-04-16 23:14 | -33.72570 | -65.39609 | 35872 ft | 410 kts | 282° |
| 2026-04-16 23:14 | -33.71030 | -65.46216 | 35887 ft | 410 kts | 283° |
| 2026-04-16 23:15 | -33.68678 | -65.56077 | 35884 ft | 409 kts | 283° |
| 2026-04-16 23:16 | -33.67120 | -65.62651 | 35860 ft | 409 kts | 283° |
| 2026-04-16 23:16 | -33.65563 | -65.69230 | 35863 ft | 409 kts | 283° |
| 2026-04-16 23:17 | -33.64005 | -65.75802 | 35864 ft | 409 kts | 283° |
| 2026-04-16 23:17 | -33.62452 | -65.82327 | 35859 ft | 409 kts | 283° |
| 2026-04-16 23:18 | -33.60890 | -65.88879 | 35859 ft | 408 kts | 283° |
| 2026-04-16 23:18 | -33.59324 | -65.95423 | 35876 ft | 408 kts | 283° |
| 2026-04-16 23:19 | -33.57757 | -66.01961 | 35841 ft | 408 kts | 283° |
| 2026-04-16 23:19 | -33.56145 | -66.08480 | 35853 ft | 406 kts | 283° |
| 2026-04-16 23:20 | -33.54616 | -66.14944 | 35867 ft | 405 kts | 283° |
| 2026-04-16 23:20 | -33.53065 | -66.21444 | 35872 ft | 405 kts | 283° |
| 2026-04-16 23:21 | -33.51493 | -66.27926 | 35878 ft | 405 kts | 283° |
| 2026-04-16 23:21 | -33.49912 | -66.34405 | 35890 ft | 404 kts | 283° |
| 2026-04-16 23:22 | -33.48215 | -66.40847 | 35885 ft | 406 kts | 288° |
| 2026-04-16 23:22 | -33.46193 | -66.47125 | 35881 ft | 406 kts | 288° |
| 2026-04-16 23:23 | -33.44162 | -66.53432 | 35857 ft | 405 kts | 288° |
| 2026-04-16 23:23 | -33.43154 | -66.56596 | 35582 ft | 410 kts | 288° |
| 2026-04-16 23:23 | -33.42149 | -66.59792 | 35221 ft | 406 kts | 286° |
| 2026-04-16 23:23 | -33.41300 | -66.62991 | 34742 ft | 401 kts | 284° |
| 2026-04-16 23:24 | -33.40516 | -66.66196 | 34337 ft | 399 kts | 284° |
| 2026-04-16 23:24 | -33.39766 | -66.69333 | 33916 ft | 396 kts | 284° |
| 2026-04-16 23:24 | -33.39010 | -66.72483 | 33420 ft | 391 kts | 284° |
| 2026-04-16 23:24 | -33.38260 | -66.75594 | 32981 ft | 387 kts | 284° |
| 2026-04-16 23:25 | -33.37510 | -66.78678 | 32536 ft | 384 kts | 284° |
| 2026-04-16 23:25 | -33.36762 | -66.81736 | 32114 ft | 380 kts | 284° |
| 2026-04-16 23:25 | -33.36020 | -66.84756 | 31697 ft | 377 kts | 284° |
| 2026-04-16 23:25 | -33.35281 | -66.87754 | 31286 ft | 374 kts | 284° |
| 2026-04-16 23:26 | -33.34546 | -66.90732 | 30888 ft | 371 kts | 284° |
| 2026-04-16 23:26 | -33.33825 | -66.93642 | 30494 ft | 369 kts | 284° |
| 2026-04-16 23:26 | -33.33096 | -66.96582 | 30096 ft | 367 kts | 284° |
| 2026-04-16 23:26 | -33.32371 | -66.99511 | 29657 ft | 365 kts | 284° |
| 2026-04-16 23:27 | -33.31652 | -67.02413 | 29204 ft | 362 kts | 284° |
| 2026-04-16 23:27 | -33.30939 | -67.05291 | 28769 ft | 359 kts | 284° |
| 2026-04-16 23:27 | -33.30226 | -67.08141 | 28349 ft | 356 kts | 284° |
| 2026-04-16 23:27 | -33.29533 | -67.10934 | 27944 ft | 354 kts | 284° |
| 2026-04-16 23:28 | -33.28825 | -67.13782 | 27537 ft | 351 kts | 284° |
| 2026-04-16 23:28 | -33.28144 | -67.16521 | 27134 ft | 347 kts | 283° |
| 2026-04-16 23:28 | -33.27457 | -67.19285 | 26753 ft | 344 kts | 283° |
| 2026-04-16 23:28 | -33.26771 | -67.22028 | 26361 ft | 344 kts | 284° |
| 2026-04-16 23:29 | -33.26084 | -67.24759 | 25978 ft | 341 kts | 284° |
| 2026-04-16 23:29 | -33.25391 | -67.27455 | 25593 ft | 339 kts | 285° |
| 2026-04-16 23:29 | -33.24644 | -67.30118 | 25225 ft | 337 kts | 285° |
| 2026-04-16 23:29 | -33.23880 | -67.32763 | 24846 ft | 335 kts | 285° |
| 2026-04-16 23:30 | -33.23125 | -67.35377 | 24465 ft | 332 kts | 285° |
| 2026-04-16 23:30 | -33.22376 | -67.37979 | 24083 ft | 331 kts | 285° |
| 2026-04-16 23:30 | -33.21630 | -67.40575 | 23700 ft | 330 kts | 285° |
| 2026-04-16 23:30 | -33.20887 | -67.43169 | 23296 ft | 330 kts | 285° |
| 2026-04-16 23:31 | -33.20155 | -67.45729 | 22882 ft | 328 kts | 285° |
| 2026-04-16 23:31 | -33.19419 | -67.48298 | 22479 ft | 326 kts | 285° |
| 2026-04-16 23:31 | -33.18689 | -67.50852 | 22097 ft | 324 kts | 285° |
| 2026-04-16 23:31 | -33.17963 | -67.53386 | 21728 ft | 321 kts | 285° |
| 2026-04-16 23:32 | -33.17244 | -67.55898 | 21369 ft | 319 kts | 286° |
| 2026-04-16 23:32 | -33.16529 | -67.58395 | 21007 ft | 316 kts | 286° |
| 2026-04-16 23:32 | -33.15818 | -67.60876 | 20628 ft | 314 kts | 286° |
| 2026-04-16 23:32 | -33.15112 | -67.63331 | 20280 ft | 312 kts | 286° |
| 2026-04-16 23:33 | -33.14647 | -67.64950 | 20049 ft | 311 kts | 286° |
| 2026-04-16 23:33 | -33.13949 | -67.67386 | 19707 ft | 309 kts | 286° |
| 2026-04-16 23:33 | -33.13254 | -67.69801 | 19362 ft | 307 kts | 286° |
| 2026-04-16 23:33 | -33.12562 | -67.72205 | 19020 ft | 306 kts | 287° |
| 2026-04-16 23:34 | -33.11685 | -67.75385 | 18556 ft | 303 kts | 281° |
| 2026-04-16 23:34 | -33.11467 | -67.77064 | 18417 ft | 300 kts | 275° |
| 2026-04-16 23:34 | -33.11289 | -67.79521 | 18206 ft | 305 kts | 274° |
| 2026-04-16 23:34 | -33.11131 | -67.82083 | 17967 ft | 312 kts | 274° |
| 2026-04-16 23:35 | -33.10972 | -67.84677 | 17708 ft | 315 kts | 274° |
| 2026-04-16 23:35 | -33.10807 | -67.87280 | 17442 ft | 314 kts | 274° |
| 2026-04-16 23:35 | -33.10636 | -67.89868 | 17179 ft | 312 kts | 274° |
| 2026-04-16 23:35 | -33.10460 | -67.92453 | 16925 ft | 312 kts | 274° |
| 2026-04-16 23:36 | -33.10281 | -67.95026 | 16619 ft | 309 kts | 274° |
| 2026-04-16 23:36 | -33.10103 | -67.97543 | 16264 ft | 307 kts | 274° |
| 2026-04-16 23:36 | -33.09919 | -68.00110 | 15870 ft | 307 kts | 274° |
| 2026-04-16 23:36 | -33.09739 | -68.02613 | 15457 ft | 307 kts | 275° |
| 2026-04-16 23:37 | -33.09556 | -68.05150 | 15051 ft | 308 kts | 275° |
| 2026-04-16 23:37 | -33.09371 | -68.07701 | 14634 ft | 309 kts | 275° |
| 2026-04-16 23:37 | -33.09183 | -68.10263 | 14210 ft | 311 kts | 275° |
| 2026-04-16 23:37 | -33.08994 | -68.12838 | 13775 ft | 313 kts | 275° |
| 2026-04-16 23:38 | -33.08804 | -68.15436 | 13305 ft | 316 kts | 275° |
| 2026-04-16 23:38 | -33.08611 | -68.18051 | 12834 ft | 318 kts | 275° |
| 2026-04-16 23:38 | -33.08417 | -68.20684 | 12370 ft | 320 kts | 275° |
| 2026-04-16 23:38 | -33.08220 | -68.23334 | 11881 ft | 322 kts | 275° |
| 2026-04-16 23:39 | -33.08022 | -68.25997 | 11421 ft | 323 kts | 275° |
| 2026-04-16 23:39 | -33.07823 | -68.28665 | 11029 ft | 322 kts | 275° |
| 2026-04-16 23:39 | -33.07624 | -68.31324 | 10661 ft | 320 kts | 275° |
| 2026-04-16 23:39 | -33.07425 | -68.33967 | 10287 ft | 320 kts | 275° |
| 2026-04-16 23:40 | -33.07229 | -68.36571 | 10130 ft | 312 kts | 275° |
| 2026-04-16 23:40 | -33.07037 | -68.39114 | 9975 ft | 304 kts | 275° |
| 2026-04-16 23:40 | -33.06853 | -68.41555 | 9826 ft | 296 kts | 275° |
| 2026-04-16 23:40 | -33.06671 | -68.43962 | 9668 ft | 288 kts | 275° |
| 2026-04-16 23:41 | -33.06489 | -68.46366 | 9263 ft | 290 kts | 275° |
| 2026-04-16 23:41 | -33.06306 | -68.48765 | 8936 ft | 290 kts | 276° |
| 2026-04-16 23:41 | -33.06124 | -68.51148 | 8630 ft | 288 kts | 276° |
| 2026-04-16 23:41 | -33.05942 | -68.53524 | 8332 ft | 286 kts | 276° |
| 2026-04-16 23:42 | -33.05762 | -68.55861 | 8211 ft | 279 kts | 276° |
| 2026-04-16 23:42 | -33.05588 | -68.58137 | 8072 ft | 273 kts | 276° |
| 2026-04-16 23:42 | -33.05418 | -68.60358 | 7954 ft | 264 kts | 276° |
| 2026-04-16 23:42 | -33.05270 | -68.62521 | 7774 ft | 260 kts | 273° |
| 2026-04-16 23:43 | -33.05239 | -68.64637 | 7657 ft | 253 kts | 271° |
| 2026-04-16 23:43 | -33.05234 | -68.66736 | 7401 ft | 252 kts | 271° |
| 2026-04-16 23:43 | -33.05227 | -68.68818 | 7164 ft | 251 kts | 272° |
| 2026-04-16 23:43 | -33.05212 | -68.70903 | 6915 ft | 251 kts | 272° |
| 2026-04-16 23:44 | -33.05195 | -68.72938 | 6821 ft | 243 kts | 272° |
| 2026-04-16 23:44 | -33.05176 | -68.74980 | 6557 ft | 244 kts | 272° |
| 2026-04-16 23:44 | -33.05159 | -68.76964 | 6343 ft | 240 kts | 272° |
| 2026-04-16 23:44 | -33.04927 | -68.78884 | 6032 ft | 231 kts | 298° |
| 2026-04-16 23:45 | -33.03828 | -68.80130 | 5796 ft | 216 kts | 342° |
| 2026-04-16 23:45 | -33.02394 | -68.80144 | 5638 ft | 203 kts | 11° |
| 2026-04-16 23:45 | -33.01023 | -68.79908 | 5412 ft | 195 kts | 6° |
| 2026-04-16 23:45 | -32.99701 | -68.79774 | 5221 ft | 185 kts | 4° |
| 2026-04-16 23:46 | -32.98464 | -68.79692 | 5062 ft | 168 kts | 3° |
| 2026-04-16 23:46 | -32.97324 | -68.79584 | 4758 ft | 168 kts | 5° |
| 2026-04-16 23:46 | -32.96193 | -68.79502 | 4530 ft | 159 kts | 2° |
| 2026-04-16 23:46 | -32.95114 | -68.79470 | 4335 ft | 158 kts | 1° |
| 2026-04-16 23:47 | -32.93969 | -68.79484 | 4149 ft | 169 kts | 359° |
| 2026-04-16 23:47 | -32.92791 | -68.79494 | 3967 ft | 168 kts | 1° |
| 2026-04-16 23:47 | -32.91621 | -68.79476 | 3721 ft | 169 kts | 2° |
| 2026-04-16 23:47 | -32.90455 | -68.79430 | 3473 ft | 167 kts | 1° |
| 2026-04-16 23:48 | -32.89297 | -68.79423 | 3265 ft | 164 kts | 0° |
| 2026-04-16 23:48 | -32.88164 | -68.79400 | 3061 ft | 161 kts | 2° |
| 2026-04-16 23:48 | -32.87044 | -68.79376 | 2841 ft | 160 kts | 2° |
| 2026-04-16 23:48 | -32.85935 | -68.79350 | 2649 ft | 159 kts | 1° |
| 2026-04-16 23:49 | -32.84830 | -68.79331 | 2467 ft | 157 kts | 2° |
| 2026-04-16 23:49 | -32.83758 | -68.79302 | 2324 ft | 146 kts | 1° |
| 2026-04-16 23:49 | -32.82961 | -68.79287 | 2326 ft | 83 kts | 1° |
| 2026-04-16 23:49 | -32.82550 | -68.79277 | 2327 ft | 35 kts | 1° |
| 2026-04-16 23:50 | -32.82319 | -68.79274 | 2324 ft | 31 kts | 0° |
| 2026-04-16 23:50 | -32.82119 | -68.79269 | 2323 ft | 25 kts | 1° |
| 2026-04-16 23:50 | -32.82000 | -68.79274 | 2323 ft | 16 kts | 342° |
| 2026-04-16 23:50 | -32.81932 | -68.79363 | 2323 ft | 14 kts | 271° |
| 2026-04-16 23:51 | -32.81938 | -68.79461 | 2323 ft | 12 kts | 239° |
| 2026-04-16 23:51 | -32.82011 | -68.79491 | 2322 ft | 12 kts | 180° |
| 2026-04-16 23:51 | -32.82091 | -68.79491 | 2322 ft | 11 kts | 181° |
| 2026-04-16 23:51 | -32.82168 | -68.79494 | 2323 ft | 11 kts | 182° |
| 2026-04-16 23:52 | -32.82243 | -68.79496 | 2322 ft | 11 kts | 180° |
| 2026-04-16 23:52 | -32.82316 | -68.79496 | 2322 ft | 10 kts | 180° |
| 2026-04-16 23:52 | -32.82387 | -68.79498 | 2322 ft | 10 kts | 181° |
| 2026-04-16 23:52 | -32.82456 | -68.79500 | 2322 ft | 10 kts | 181° |
| 2026-04-16 23:53 | -32.82523 | -68.79501 | 2322 ft | 10 kts | 180° |
| 2026-04-16 23:53 | -32.82589 | -68.79502 | 2322 ft | 9 kts | 181° |
| 2026-04-16 23:53 | -32.82651 | -68.79506 | 2322 ft | 9 kts | 198° |
| 2026-04-16 23:53 | -32.82674 | -68.79574 | 2322 ft | 9 kts | 261° |
| 2026-04-16 23:54 | -32.82674 | -68.79646 | 2322 ft | 8 kts | 272° |
| 2026-04-16 23:54 | -32.82685 | -68.79701 | 2323 ft | 7 kts | 205° |
| 2026-04-16 23:54 | -32.82733 | -68.79706 | 2322 ft | 7 kts | 179° |
| 2026-04-16 23:54 | -32.82781 | -68.79707 | 2322 ft | 6 kts | 181° |
| 2026-04-16 23:55 | -32.82802 | -68.79731 | 2322 ft | 3 kts | 270° |
| 2026-04-16 23:55 | -32.82802 | -68.79748 | 2322 ft | 2 kts | 271° |
| 2026-04-16 23:55 | -32.82802 | -68.79764 | 2322 ft | 2 kts | 271° |
| 2026-04-16 23:55 | -32.82801 | -68.79776 | 2322 ft | 0 kts | 272° |